createdAt,value
2022-10-01T00:01:06.376Z,100738.09
2022-10-01T00:03:35.109Z,100738.94
2022-10-01T00:06:09.538Z,100740.34
2022-10-01T00:08:38.048Z,100736.81
2022-10-01T00:11:13.168Z,100730.75
2022-10-01T00:13:40.865Z,100727.59
2022-10-01T00:16:10.167Z,100732.72
2022-10-01T00:18:41.531Z,100729.81
2022-10-01T00:21:10.451Z,100727.13
2022-10-01T00:23:37.721Z,100726.47
2022-10-01T00:26:13.775Z,100717.72
2022-10-01T00:28:41.946Z,100713.34
2022-10-01T00:31:09.842Z,100724.59
2022-10-01T00:33:37.258Z,100712.94
2022-10-01T00:36:05.624Z,100716.28
2022-10-01T00:38:32.945Z,100706.06
2022-10-01T00:41:00.483Z,100709.22
2022-10-01T00:43:33.068Z,100712.59
2022-10-01T00:46:18.208Z,100699.25
2022-10-01T00:49:01.677Z,100705.22
2022-10-01T00:51:39.715Z,100700.19
2022-10-01T00:54:11.490Z,100697.88
2022-10-01T00:56:38.849Z,100702.06
2022-10-01T00:59:07.136Z,100699.53
2022-10-01T01:01:37.123Z,100696.84
2022-10-01T01:04:04.291Z,100696.59
2022-10-01T01:06:30.952Z,100697.81
2022-10-01T01:08:57.546Z,100702.00
2022-10-01T01:11:33.161Z,100694.72
2022-10-01T01:14:17.716Z,100696.22
2022-10-01T01:16:52.412Z,100689.88
2022-10-01T01:19:20.164Z,100696.97
2022-10-01T01:21:53.328Z,100688.22
2022-10-01T01:24:46.623Z,100691.09
2022-10-01T01:28:02.568Z,100691.88
2022-10-01T01:30:33.175Z,100691.41
2022-10-01T01:33:09.376Z,100694.31
2022-10-01T01:35:41.943Z,100688.47
2022-10-01T01:38:14.297Z,100694.69
2022-10-01T01:40:43.790Z,100688.47
2022-10-01T01:43:18.582Z,100680.59
2022-10-01T01:45:47.235Z,100679.75
2022-10-01T01:48:14.866Z,100679.13
2022-10-01T01:50:49.019Z,100674.50
2022-10-01T01:53:15.778Z,100683.09
2022-10-01T01:55:45.017Z,100687.72
2022-10-01T01:58:12.325Z,100679.22
2022-10-01T02:00:39.270Z,100677.56
2022-10-01T02:03:06.748Z,100675.69
2022-10-01T02:05:43.276Z,100684.63
2022-10-01T02:08:33.981Z,100674.41
2022-10-01T02:11:15.870Z,100667.34
2022-10-01T02:14:12.525Z,100668.56
2022-10-01T02:16:52.506Z,100662.69
2022-10-01T02:19:36.055Z,100667.19
2022-10-01T02:22:13.348Z,100663.84
2022-10-01T02:24:47.200Z,100665.63
2022-10-01T02:27:20.532Z,100664.50
2022-10-01T02:29:50.684Z,100661.16
2022-10-01T02:32:18.545Z,100657.41
2022-10-01T02:34:49.394Z,100659.91
2022-10-01T02:37:21.477Z,100667.19
2022-10-01T02:39:50.323Z,100663.66
2022-10-01T02:42:20.264Z,100651.28
2022-10-01T02:44:49.569Z,100653.97
2022-10-01T02:47:25.405Z,100653.97
2022-10-01T02:49:53.073Z,100652.50
2022-10-01T02:52:26.956Z,100656.41
2022-10-01T02:55:12.195Z,100655.94
2022-10-01T02:57:39.033Z,100663.41
2022-10-01T03:00:09.412Z,100656.78
2022-10-01T03:02:36.344Z,100651.56
2022-10-01T03:05:03.751Z,100656.31
2022-10-01T03:07:32.200Z,100652.31
2022-10-01T03:09:58.743Z,100652.94
2022-10-01T03:12:25.312Z,100650.53
2022-10-01T03:14:53.089Z,100649.59
2022-10-01T03:17:19.803Z,100643.72
2022-10-01T03:19:46.381Z,100631.00
2022-10-01T03:22:15.480Z,100643.16
2022-10-01T03:24:42.093Z,100631.56
2022-10-01T03:27:08.650Z,100632.66
2022-10-01T03:29:35.204Z,100631.75
2022-10-01T03:32:01.969Z,100626.91
2022-10-01T03:34:28.559Z,100624.94
2022-10-01T03:36:55.149Z,100627.81
2022-10-01T03:39:21.729Z,100625.22
2022-10-01T03:41:48.301Z,100622.25
2022-10-01T03:44:14.942Z,100629.13
2022-10-01T03:46:41.647Z,100619.16
2022-10-01T03:49:08.194Z,100624.56
2022-10-01T03:51:37.498Z,100623.38
2022-10-01T03:54:06.257Z,100625.78
2022-10-01T03:56:33.308Z,100624.56
2022-10-01T03:58:59.892Z,100612.94
2022-10-01T04:01:26.908Z,100618.72
2022-10-01T04:03:53.977Z,100619.28
2022-10-01T04:06:20.577Z,100612.88
2022-10-01T04:08:47.235Z,100608.31
2022-10-01T04:11:14.006Z,100612.03
2022-10-01T04:13:40.727Z,100607.72
2022-10-01T04:16:07.962Z,100609.59
2022-10-01T04:18:34.724Z,100598.06
2022-10-01T04:21:01.400Z,100597.03
2022-10-01T04:23:28.023Z,100599.00
2022-10-01T04:25:54.902Z,100590.06
2022-10-01T04:28:21.602Z,100582.81
2022-10-01T04:30:48.247Z,100585.41
2022-10-01T04:33:16.551Z,100577.22
2022-10-01T04:35:44.032Z,100586.06
2022-10-01T04:38:16.124Z,100589.88
2022-10-01T04:40:43.115Z,100585.06
2022-10-01T04:43:11.344Z,100582.91
2022-10-01T04:45:38.493Z,100578.50
2022-10-01T04:48:05.406Z,100581.31
2022-10-01T04:50:32.843Z,100574.91
2022-10-01T04:52:59.652Z,100566.72
2022-10-01T04:55:26.769Z,100570.34
2022-10-01T04:57:53.552Z,100575.25
2022-10-01T05:00:24.411Z,100570.44
2022-10-01T05:02:51.718Z,100578.06
2022-10-01T05:05:21.205Z,100570.34
2022-10-01T05:07:48.389Z,100577.44
2022-10-01T05:10:18.209Z,100571.91
2022-10-01T05:12:46.285Z,100575.28
2022-10-01T05:15:14.156Z,100565.41
2022-10-01T05:17:40.753Z,100564.56
2022-10-01T05:20:10.074Z,100558.31
2022-10-01T05:22:36.694Z,100562.31
2022-10-01T05:25:03.791Z,100556.91
2022-10-01T05:27:37.708Z,100565.00
2022-10-01T05:30:05.444Z,100566.16
2022-10-01T05:32:32.034Z,100563.06
2022-10-01T05:34:58.617Z,100569.03
2022-10-01T05:37:25.206Z,100566.72
2022-10-01T05:39:51.853Z,100558.53
2022-10-01T05:42:18.462Z,100562.06
2022-10-01T05:44:49.977Z,100547.81
2022-10-01T05:47:17.161Z,100547.81
2022-10-01T05:49:44.493Z,100544.56
2022-10-01T05:52:12.480Z,100546.41
2022-10-01T05:54:39.206Z,100538.56
2022-10-01T05:57:07.879Z,100541.81
2022-10-01T05:59:35.356Z,100539.88
2022-10-01T06:02:02.488Z,100535.03
2022-10-01T06:04:29.093Z,100522.69
2022-10-01T06:06:56.199Z,100526.44
2022-10-01T06:09:22.947Z,100529.13
2022-10-01T06:11:49.638Z,100524.09
2022-10-01T06:14:16.926Z,100518.69
2022-10-01T06:16:43.633Z,100509.13
2022-10-01T06:19:10.551Z,100519.91
2022-10-01T06:21:37.621Z,100504.94
2022-10-01T06:24:04.454Z,100500.38
2022-10-01T06:26:31.229Z,100503.91
2022-10-01T06:28:57.875Z,100502.50
2022-10-01T06:31:25.165Z,100505.34
2022-10-01T06:33:52.103Z,100498.22
2022-10-01T06:36:18.707Z,100488.66
2022-10-01T06:38:49.306Z,100496.13
2022-10-01T06:41:15.881Z,100488.59
2022-10-01T06:43:42.493Z,100488.41
2022-10-01T06:46:09.211Z,100481.53
2022-10-01T06:48:36.787Z,100479.00
2022-10-01T06:51:03.955Z,100477.63
2022-10-01T06:53:30.602Z,100471.56
2022-10-01T06:55:57.426Z,100467.38
2022-10-01T06:58:27.935Z,100461.63
2022-10-01T07:01:02.295Z,100460.38
2022-10-01T07:03:29.855Z,100459.56
2022-10-01T07:06:02.947Z,100453.88
2022-10-01T07:08:29.849Z,100455.75
2022-10-01T07:11:03.361Z,100450.69
2022-10-01T07:13:30.716Z,100454.38
2022-10-01T07:15:57.350Z,100447.97
2022-10-01T07:18:24.022Z,100445.94
2022-10-01T07:20:50.734Z,100446.47
2022-10-01T07:23:17.461Z,100438.84
2022-10-01T07:25:44.936Z,100437.00
2022-10-01T07:28:18.808Z,100431.25
2022-10-01T07:31:10.202Z,100433.50
2022-10-01T07:33:39.907Z,100419.56
2022-10-01T07:36:08.818Z,100419.78
2022-10-01T07:38:35.632Z,100422.00
2022-10-01T07:41:03.427Z,100423.22
2022-10-01T07:43:31.415Z,100421.09
2022-10-01T07:45:58.351Z,100415.44
2022-10-01T07:48:25.177Z,100417.59
2022-10-01T07:50:51.880Z,100417.78
2022-10-01T07:53:18.566Z,100414.75
2022-10-01T07:55:45.702Z,100405.03
2022-10-01T07:58:12.287Z,100414.56
2022-10-01T08:00:39.188Z,100403.31
2022-10-01T08:03:05.820Z,100407.78
2022-10-01T08:05:34.649Z,100395.19
2022-10-01T08:08:06.738Z,100393.22
2022-10-01T08:10:36.636Z,100386.16
2022-10-01T08:13:08.319Z,100391.16
2022-10-01T08:15:35.665Z,100379.50
2022-10-01T08:18:03.479Z,100378.66
2022-10-01T08:20:30.792Z,100374.78
2022-10-01T08:23:10.386Z,100375.06
2022-10-01T08:25:38.211Z,100364.84
2022-10-01T08:28:05.287Z,100358.44
2022-10-01T08:30:32.395Z,100356.66
2022-10-01T08:33:01.937Z,100351.88
2022-10-01T08:35:30.198Z,100352.16
2022-10-01T08:38:04.175Z,100363.59
2022-10-01T08:40:36.785Z,100350.84
2022-10-01T08:43:07.073Z,100341.97
2022-10-01T08:45:51.667Z,100344.72
2022-10-01T08:48:33.026Z,100350.81
2022-10-01T08:51:06.093Z,100346.69
2022-10-01T08:53:48.321Z,100343.41
2022-10-01T08:56:37.513Z,100344.50
2022-10-01T08:59:31.082Z,100337.09
2022-10-01T09:01:59.187Z,100337.19
2022-10-01T09:04:27.122Z,100329.22
2022-10-01T09:07:18.759Z,100330.53
2022-10-01T09:09:56.066Z,100317.53
2022-10-01T09:12:39.249Z,100319.09
2022-10-01T09:15:27.432Z,100319.56
2022-10-01T09:17:56.897Z,100307.50
2022-10-01T09:20:33.910Z,100315.00
2022-10-01T09:23:03.379Z,100318.38
2022-10-01T09:25:31.049Z,100302.63
2022-10-01T09:28:11.412Z,100299.91
2022-10-01T09:30:46.161Z,100290.97
2022-10-01T09:33:17.363Z,100284.69
2022-10-01T09:35:48.875Z,100284.06
2022-10-01T09:38:15.392Z,100273.44
2022-10-01T09:40:52.096Z,100273.88
2022-10-01T09:43:22.013Z,100274.28
2022-10-01T09:45:50.053Z,100268.88
2022-10-01T09:48:30.346Z,100267.41
2022-10-01T09:51:03.505Z,100266.81
2022-10-01T09:53:41.545Z,100269.94
2022-10-01T09:56:29.728Z,100253.06
2022-10-01T09:59:01.871Z,100258.47
2022-10-01T10:01:42.217Z,100253.91
2022-10-01T10:04:09.773Z,100256.19
2022-10-01T10:06:36.968Z,100256.19
2022-10-01T10:09:04.770Z,100250.56
2022-10-01T10:11:33.173Z,100248.91
2022-10-01T10:14:03.631Z,100246.41
2022-10-01T10:16:38.004Z,100243.50
2022-10-01T10:19:13.908Z,100235.38
2022-10-01T10:21:53.631Z,100223.72
2022-10-01T10:24:34.581Z,100217.88
2022-10-01T10:27:04.252Z,100213.09
2022-10-01T10:29:35.941Z,100219.75
2022-10-01T10:32:19.273Z,100206.44
2022-10-01T10:34:49.123Z,100213.72
2022-10-01T10:37:28.315Z,100215.16
2022-10-01T10:39:55.147Z,100204.38
2022-10-01T10:42:23.112Z,100207.09
2022-10-01T10:44:52.851Z,100207.28
2022-10-01T10:47:21.443Z,100210.63
2022-10-01T10:49:54.666Z,100213.34
2022-10-01T10:52:36.639Z,100208.97
2022-10-01T10:55:21.536Z,100197.50
2022-10-01T10:57:48.210Z,100204.16
2022-10-01T11:00:18.090Z,100208.75
2022-10-01T11:02:58.850Z,100198.97
2022-10-01T11:05:32.433Z,100203.56
2022-10-01T11:08:05.110Z,100205.22
2022-10-01T11:10:41.889Z,100201.84
2022-10-01T11:13:26.891Z,100197.91
2022-10-01T11:16:08.818Z,100200.19
2022-10-01T11:19:11.309Z,100188.31
2022-10-01T11:21:58.624Z,100186.88
2022-10-01T11:24:59.345Z,100168.53
2022-10-01T11:27:53.114Z,100175.84
2022-10-01T11:30:25.993Z,100163.13
2022-10-01T11:33:27.323Z,100162.69
2022-10-01T11:36:02.968Z,100160.81
2022-10-01T11:38:38.901Z,100162.91
2022-10-01T11:41:27.676Z,100171.66
2022-10-01T11:44:13.738Z,100173.53
2022-10-01T11:46:43.584Z,100174.97
2022-10-01T11:49:28.856Z,100174.53
2022-10-01T11:52:16.551Z,100168.06
2022-10-01T11:54:55.995Z,100169.31
2022-10-01T11:57:42.494Z,100167.69
2022-10-01T12:00:11.772Z,100165.78
2022-10-01T12:02:58.749Z,100152.88
2022-10-01T12:05:29.327Z,100148.94
2022-10-01T12:08:29.571Z,100153.47
2022-10-01T12:11:05.469Z,100149.56
2022-10-01T12:13:37.809Z,100138.94
2022-10-01T12:16:14.613Z,100155.56
2022-10-01T12:18:47.157Z,100151.81
2022-10-01T12:21:31.611Z,100140.38
2022-10-01T12:24:06.275Z,100132.91
2022-10-01T12:27:00.651Z,100146.44
2022-10-01T12:30:02.063Z,100134.78
2022-10-01T12:32:33.534Z,100128.94
2022-10-01T12:35:47.412Z,100141.88
2022-10-01T12:38:37.409Z,100143.94
2022-10-01T12:41:35.813Z,100141.88
2022-10-01T12:44:21.017Z,100134.78
2022-10-01T12:46:56.521Z,100133.75
2022-10-01T12:49:44.419Z,100128.94
2022-10-01T12:52:40.433Z,100138.94
2022-10-01T12:55:34.374Z,100131.44
2022-10-01T12:58:00.943Z,100134.13
2022-10-01T13:00:34.083Z,100136.63
2022-10-01T13:03:12.855Z,100135.38
2022-10-01T13:06:06.210Z,100138.94
2022-10-01T13:08:41.542Z,100131.63
2022-10-01T13:11:20.631Z,100128.09
2022-10-01T13:13:52.176Z,100132.25
2022-10-01T13:16:37.529Z,100126.59
2022-10-01T13:19:30.014Z,100131.81
2022-10-01T13:22:08.887Z,100127.44
2022-10-01T13:25:10.110Z,100126.59
2022-10-01T13:27:48.300Z,100126.41
2022-10-01T13:30:48.309Z,100138.06
2022-10-01T13:33:24.270Z,100128.28
2022-10-01T13:35:59.511Z,100123.69
2022-10-01T13:38:37.964Z,100122.84
2022-10-01T13:41:27.179Z,100123.69
2022-10-01T13:43:59.109Z,100122.63
2022-10-01T13:46:31.226Z,100118.03
2022-10-01T13:49:20.770Z,100113.88
2022-10-01T13:51:47.545Z,100115.53
2022-10-01T13:54:25.068Z,100117.19
2022-10-01T13:56:51.775Z,100119.91
2022-10-01T13:59:32.958Z,100117.81
2022-10-01T14:02:00.047Z,100115.09
2022-10-01T14:04:53.457Z,100119.03
2022-10-01T14:07:26.091Z,100115.28
2022-10-01T14:09:58.105Z,100106.53
2022-10-01T14:12:54.128Z,100103.75
2022-10-01T14:15:45.043Z,100104.78
2022-10-01T14:18:22.218Z,100110.00
2022-10-01T14:21:19.583Z,100102.47
2022-10-01T14:24:17.352Z,100101.41
2022-10-01T14:26:46.482Z,100106.41
2022-10-01T14:29:27.514Z,100103.28
2022-10-01T14:32:23.016Z,100100.75
2022-10-01T14:35:08.225Z,100090.13
2022-10-01T14:37:39.417Z,100099.09
2022-10-01T14:40:17.091Z,100092.03
2022-10-01T14:42:43.953Z,100087.66
2022-10-01T14:45:17.893Z,100083.28
2022-10-01T14:47:44.888Z,100086.41
2022-10-01T14:50:19.547Z,100077.03
2022-10-01T14:52:51.019Z,100088.47
2022-10-01T14:55:22.477Z,100085.34
2022-10-01T14:57:55.329Z,100102.03
2022-10-01T15:00:24.972Z,100094.31
2022-10-01T15:03:01.763Z,100090.13
2022-10-01T15:05:33.701Z,100099.97
2022-10-01T15:08:22.709Z,100084.94
2022-10-01T15:10:57.093Z,100093.28
2022-10-01T15:13:36.571Z,100089.94
2022-10-01T15:16:03.860Z,100095.38
2022-10-01T15:18:31.792Z,100093.50
2022-10-01T15:21:06.661Z,100091.63
2022-10-01T15:23:39.681Z,100092.69
2022-10-01T15:26:11.661Z,100093.72
2022-10-01T15:28:38.345Z,100099.38
2022-10-01T15:31:06.758Z,100102.69
2022-10-01T15:33:36.189Z,100097.06
2022-10-01T15:36:05.702Z,100098.94
2022-10-01T15:38:33.337Z,100107.88
2022-10-01T15:41:26.934Z,100112.25
2022-10-01T15:43:50.510Z,100105.19
2022-10-01T15:46:22.960Z,100114.97
2022-10-01T15:49:24.757Z,100113.69
2022-10-01T15:52:22.707Z,100107.66
2022-10-01T15:54:58.725Z,100104.13
2022-10-01T15:57:28.223Z,100116.63
2022-10-01T15:59:56.935Z,100111.22
2022-10-01T16:02:30.832Z,100111.44
2022-10-01T16:05:04.918Z,100112.03
2022-10-01T16:07:34.799Z,100109.78
2022-10-01T16:10:28.105Z,100116.31
2022-10-01T16:12:54.752Z,100117.72
2022-10-01T16:15:29.664Z,100117.47
2022-10-01T16:17:59.305Z,100124.09
2022-10-01T16:20:36.688Z,100129.94
2022-10-01T16:23:40.394Z,100125.13
2022-10-01T16:26:27.235Z,100131.59
2022-10-01T16:28:56.654Z,100136.56
2022-10-01T16:31:25.584Z,100131.16
2022-10-01T16:33:52.437Z,100132.59
2022-10-01T16:36:20.746Z,100132.78
2022-10-01T16:38:51.196Z,100139.03
2022-10-01T16:41:26.850Z,100135.06
2022-10-01T16:43:56.921Z,100142.75
2022-10-01T16:46:23.541Z,100137.53
2022-10-01T16:48:53.711Z,100139.44
2022-10-01T16:51:21.855Z,100148.56
2022-10-01T16:53:49.783Z,100150.00
2022-10-01T16:56:16.387Z,100147.94
2022-10-01T16:58:44.268Z,100153.13
2022-10-01T17:01:14.644Z,100167.72
2022-10-01T17:03:41.746Z,100160.34
2022-10-01T17:06:08.497Z,100165.97
2022-10-01T17:08:35.139Z,100166.81
2022-10-01T17:11:02.964Z,100170.50
2022-10-01T17:13:32.820Z,100173.03
2022-10-01T17:15:59.940Z,100170.09
2022-10-01T17:18:26.536Z,100176.94
2022-10-01T17:20:53.217Z,100182.38
2022-10-01T17:23:22.270Z,100180.03
2022-10-01T17:25:49.534Z,100173.19
2022-10-01T17:28:19.925Z,100178.75
2022-10-01T17:30:48.145Z,100181.88
2022-10-01T17:33:16.677Z,100181.84
2022-10-01T17:35:45.570Z,100183.31
2022-10-01T17:38:13.085Z,100177.03
2022-10-01T17:40:41.519Z,100177.47
2022-10-01T17:43:11.207Z,100180.38
2022-10-01T17:45:37.850Z,100180.00
2022-10-01T17:48:04.505Z,100177.50
2022-10-01T17:50:31.481Z,100184.81
2022-10-01T17:52:59.517Z,100175.84
2022-10-01T17:55:26.727Z,100173.34
2022-10-01T17:57:54.023Z,100182.13
2022-10-01T18:00:20.599Z,100180.41
2022-10-01T18:02:47.235Z,100188.41
2022-10-01T18:05:14.959Z,100185.09
2022-10-01T18:07:42.264Z,100183.44
2022-10-01T18:10:12.186Z,100184.47
2022-10-01T18:12:38.879Z,100185.94
2022-10-01T18:15:05.973Z,100187.00
2022-10-01T18:17:33.337Z,100190.78
2022-10-01T18:20:00.190Z,100191.81
2022-10-01T18:22:28.225Z,100192.25
2022-10-01T18:24:55.034Z,100191.44
2022-10-01T18:27:21.866Z,100199.78
2022-10-01T18:29:48.487Z,100197.09
2022-10-01T18:32:22.568Z,100198.75
2022-10-01T18:34:55.692Z,100206.88
2022-10-01T18:37:37.789Z,100203.34
2022-10-01T18:40:20.206Z,100210.00
2022-10-01T18:43:12.833Z,100214.41
2022-10-01T18:45:48.518Z,100202.31
2022-10-01T18:48:25.617Z,100219.63
2022-10-01T18:51:06.185Z,100220.69
2022-10-01T18:53:41.379Z,100226.72
2022-10-01T18:56:30.155Z,100229.44
2022-10-01T18:59:33.293Z,100226.09
2022-10-01T19:02:12.138Z,100233.19
2022-10-01T19:05:16.159Z,100236.97
2022-10-01T19:08:01.404Z,100234.47
2022-10-01T19:10:27.934Z,100246.16
2022-10-01T19:13:32.636Z,100247.81
2022-10-01T19:16:09.694Z,100251.78
2022-10-01T19:19:07.140Z,100265.78
2022-10-01T19:21:52.673Z,100264.94
2022-10-01T19:24:22.060Z,100268.06
2022-10-01T19:27:29.842Z,100275.78
2022-10-01T19:30:06.542Z,100287.06
2022-10-01T19:32:42.410Z,100288.50
2022-10-01T19:35:26.816Z,100285.59
2022-10-01T19:38:06.426Z,100297.47
2022-10-01T19:40:53.470Z,100305.81
2022-10-01T19:43:57.537Z,100307.28
2022-10-01T19:46:33.756Z,100315.44
2022-10-01T19:49:09.644Z,100323.34
2022-10-01T19:51:45.267Z,100342.09
2022-10-01T19:54:22.254Z,100343.16
2022-10-01T19:56:55.046Z,100340.22
2022-10-01T19:59:22.148Z,100351.91
2022-10-01T20:01:55.134Z,100350.03
2022-10-01T20:04:40.565Z,100353.78
2022-10-01T20:07:14.115Z,100357.34
2022-10-01T20:09:52.027Z,100359.81
2022-10-01T20:12:45.039Z,100367.34
2022-10-01T20:15:45.697Z,100364.63
2022-10-01T20:18:28.148Z,100375.47
2022-10-01T20:21:32.843Z,100389.66
2022-10-01T20:24:33.174Z,100384.22
2022-10-01T20:27:27.828Z,100389.66
2022-10-01T20:30:20.351Z,100391.31
2022-10-01T20:33:06.881Z,100397.56
2022-10-01T20:35:57.127Z,100398.63
2022-10-01T20:38:36.545Z,100404.88
2022-10-01T20:41:10.559Z,100398.84
2022-10-01T20:43:51.195Z,100410.31
2022-10-01T20:46:25.331Z,100409.06
2022-10-01T20:48:58.565Z,100413.22
2022-10-01T20:51:42.936Z,100415.13
2022-10-01T20:54:13.318Z,100417.00
2022-10-01T20:56:59.917Z,100428.66
2022-10-01T20:59:38.883Z,100427.63
2022-10-01T21:02:16.564Z,100428.47
2022-10-01T21:04:50.908Z,100435.97
2022-10-01T21:07:58.941Z,100440.13
2022-10-01T21:10:51.026Z,100443.91
2022-10-01T21:13:29.684Z,100449.53
2022-10-01T21:16:05.421Z,100454.34
2022-10-01T21:19:05.717Z,100463.09
2022-10-01T21:22:01.457Z,100469.78
2022-10-01T21:24:57.482Z,100467.06
2022-10-01T21:27:38.865Z,100482.50
2022-10-01T21:30:11.912Z,100477.09
2022-10-01T21:33:09.154Z,100482.50
2022-10-01T21:35:56.914Z,100488.97
2022-10-01T21:38:49.346Z,100495.84
2022-10-01T21:41:41.842Z,100498.56
2022-10-01T21:44:23.141Z,100496.91
2022-10-01T21:47:02.065Z,100502.13
2022-10-01T21:49:37.836Z,100506.28
2022-10-01T21:52:22.465Z,100512.53
2022-10-01T21:55:01.214Z,100521.09
2022-10-01T21:57:34.552Z,100526.72
2022-10-01T22:00:23.057Z,100530.28
2022-10-01T22:02:53.639Z,100529.00
2022-10-01T22:05:50.241Z,100531.31
2022-10-01T22:08:25.862Z,100545.09
2022-10-01T22:10:56.760Z,100554.06
2022-10-01T22:13:33.078Z,100555.72
2022-10-01T22:16:07.306Z,100555.31
2022-10-01T22:19:12.085Z,100557.19
2022-10-01T22:21:43.062Z,100563.88
2022-10-01T22:24:13.549Z,100569.09
2022-10-01T22:26:47.658Z,100577.00
2022-10-01T22:29:20.306Z,100579.50
2022-10-01T22:31:49.934Z,100587.44
2022-10-01T22:34:22.546Z,100592.22
2022-10-01T22:37:07.674Z,100592.00
2022-10-01T22:39:39.717Z,100603.06
2022-10-01T22:42:16.067Z,100604.34
2022-10-01T22:44:43.538Z,100603.72
2022-10-01T22:47:27.925Z,100612.69
2022-10-01T22:50:06.733Z,100605.59
2022-10-01T22:52:48.628Z,100612.03
2022-10-01T22:55:28.489Z,100618.72
2022-10-01T22:58:13.094Z,100620.81
2022-10-01T23:00:48.667Z,100632.50
2022-10-01T23:03:29.525Z,100632.72
2022-10-01T23:06:07.146Z,100639.16
2022-10-01T23:08:58.895Z,100644.19
2022-10-01T23:11:51.375Z,100652.91
2022-10-01T23:14:32.942Z,100655.44
2022-10-01T23:17:06.440Z,100650.44
2022-10-01T23:19:51.183Z,100653.38
2022-10-01T23:22:23.759Z,100655.25
2022-10-01T23:25:23.889Z,100657.97
2022-10-01T23:27:56.298Z,100658.78
2022-10-01T23:30:23.282Z,100665.88
2022-10-01T23:33:02.775Z,100665.88
2022-10-01T23:35:46.284Z,100676.31
2022-10-01T23:38:15.589Z,100682.56
2022-10-01T23:40:46.026Z,100676.09
2022-10-01T23:43:12.630Z,100691.16
2022-10-01T23:46:03.887Z,100686.56
2022-10-01T23:48:46.387Z,100693.00
2022-10-01T23:51:25.626Z,100702.00
2022-10-01T23:53:55.760Z,100700.31
2022-10-01T23:56:48.598Z,100708.28
2022-10-01T23:59:31.632Z,100704.72
